sensor_id;sensor_type;location;lat;lon;timestamp;pressure;altitude;pressure_sealevel;temperature;humidity
79577;BME280;69045;48.136;11.386;2023-12-28T00:00:32;95512.28;;;8.28;45.96
79577;BME280;69045;48.136;11.386;2023-12-28T00:03:01;95519.16;;;8.36;45.75
79577;BME280;69045;48.136;11.386;2023-12-28T00:05:29;95517.16;;;8.38;45.98
79577;BME280;69045;48.136;11.386;2023-12-28T00:07:57;95519.72;;;8.31;46.28
79577;BME280;69045;48.136;11.386;2023-12-28T00:10:27;95521.34;;;8.39;45.92
79577;BME280;69045;48.136;11.386;2023-12-28T00:12:55;95518.97;;;8.44;45.40
79577;BME280;69045;48.136;11.386;2023-12-28T00:15:23;95522.59;;;8.50;45.17
79577;BME280;69045;48.136;11.386;2023-12-28T00:17:51;95518.78;;;8.52;45.40
79577;BME280;69045;48.136;11.386;2023-12-28T00:20:20;95518.59;;;8.54;45.31
79577;BME280;69045;48.136;11.386;2023-12-28T00:22:48;95523.63;;;8.55;44.99
79577;BME280;69045;48.136;11.386;2023-12-28T00:25:16;95506.34;;;8.54;44.93
79577;BME280;69045;48.136;11.386;2023-12-28T00:27:44;95498.69;;;8.53;45.22
79577;BME280;69045;48.136;11.386;2023-12-28T00:30:13;95502.31;;;8.52;44.63
79577;BME280;69045;48.136;11.386;2023-12-28T00:32:42;95507.16;;;8.55;44.74
79577;BME280;69045;48.136;11.386;2023-12-28T00:35:12;95503.53;;;8.56;44.71
79577;BME280;69045;48.136;11.386;2023-12-28T00:37:42;95506.16;;;8.56;44.31
79577;BME280;69045;48.136;11.386;2023-12-28T00:40:10;95502.31;;;8.52;44.53
79577;BME280;69045;48.136;11.386;2023-12-28T00:42:38;95504.72;;;8.46;44.53
79577;BME280;69045;48.136;11.386;2023-12-28T00:45:09;95514.56;;;8.44;44.51
79577;BME280;69045;48.136;11.386;2023-12-28T00:47:37;95523.97;;;8.39;44.72
79577;BME280;69045;48.136;11.386;2023-12-28T00:50:06;95518.16;;;8.37;44.95
79577;BME280;69045;48.136;11.386;2023-12-28T00:52:34;95510.91;;;8.39;45.28
79577;BME280;69045;48.136;11.386;2023-12-28T00:55:04;95511.28;;;8.29;45.28
79577;BME280;69045;48.136;11.386;2023-12-28T00:57:32;95516.66;;;8.14;45.16
79577;BME280;69045;48.136;11.386;2023-12-28T01:00:00;95515.06;;;8.13;44.96
79577;BME280;69045;48.136;11.386;2023-12-28T01:02:29;95517.66;;;8.13;45.24
79577;BME280;69045;48.136;11.386;2023-12-28T01:04:57;95519.88;;;8.16;45.04
79577;BME280;69045;48.136;11.386;2023-12-28T01:07:25;95522.69;;;8.15;45.30
79577;BME280;69045;48.136;11.386;2023-12-28T01:09:54;95514.25;;;8.13;45.29
79577;BME280;69045;48.136;11.386;2023-12-28T01:12:25;95522.47;;;8.10;46.21
79577;BME280;69045;48.136;11.386;2023-12-28T01:14:53;95533.47;;;8.05;46.22
79577;BME280;69045;48.136;11.386;2023-12-28T01:17:21;95527.44;;;7.98;45.84
79577;BME280;69045;48.136;11.386;2023-12-28T01:19:49;95534.81;;;7.88;45.43
79577;BME280;69045;48.136;11.386;2023-12-28T01:22:17;95541.41;;;7.84;46.05
79577;BME280;69045;48.136;11.386;2023-12-28T01:24:46;95547.63;;;7.83;45.98
79577;BME280;69045;48.136;11.386;2023-12-28T01:27:16;95563.03;;;7.78;46.16
79577;BME280;69045;48.136;11.386;2023-12-28T01:29:46;95555.84;;;7.80;45.33
79577;BME280;69045;48.136;11.386;2023-12-28T01:32:14;95565.09;;;7.82;46.30
79577;BME280;69045;48.136;11.386;2023-12-28T01:34:42;95557.41;;;7.74;45.71
79577;BME280;69045;48.136;11.386;2023-12-28T01:37:10;95567.22;;;7.72;45.70
79577;BME280;69045;48.136;11.386;2023-12-28T01:39:38;95565.56;;;7.64;46.56
79577;BME280;69045;48.136;11.386;2023-12-28T01:42:07;95565.16;;;7.61;46.39
79577;BME280;69045;48.136;11.386;2023-12-28T01:44:35;95570.63;;;7.66;45.18
79577;BME280;69045;48.136;11.386;2023-12-28T01:47:05;95569.03;;;7.72;45.61
79577;BME280;69045;48.136;11.386;2023-12-28T01:49:35;95570.63;;;7.66;45.68
79577;BME280;69045;48.136;11.386;2023-12-28T01:52:06;95571.47;;;7.73;45.50
79577;BME280;69045;48.136;11.386;2023-12-28T01:54:36;95561.50;;;7.90;44.92
79577;BME280;69045;48.136;11.386;2023-12-28T01:57:06;95552.78;;;8.17;44.43
79577;BME280;69045;48.136;11.386;2023-12-28T01:59:35;95549.72;;;8.48;43.42
79577;BME280;69045;48.136;11.386;2023-12-28T02:02:04;95543.34;;;8.84;42.35
79577;BME280;69045;48.136;11.386;2023-12-28T02:04:33;95533.28;;;9.21;41.40
79577;BME280;69045;48.136;11.386;2023-12-28T02:07:01;95542.50;;;9.50;40.69
79577;BME280;69045;48.136;11.386;2023-12-28T02:09:29;95542.63;;;9.75;39.90
79577;BME280;69045;48.136;11.386;2023-12-28T02:11:57;95538.38;;;9.94;38.88
79577;BME280;69045;48.136;11.386;2023-12-28T02:14:26;95545.78;;;10.10;39.00
79577;BME280;69045;48.136;11.386;2023-12-28T02:16:59;95551.56;;;10.25;38.02
79577;BME280;69045;48.136;11.386;2023-12-28T02:19:40;95554.13;;;10.38;37.10
79577;BME280;69045;48.136;11.386;2023-12-28T02:22:14;95554.09;;;10.45;37.81
79577;BME280;69045;48.136;11.386;2023-12-28T02:28:26;95550.41;;;10.53;37.21
79577;BME280;69045;48.136;11.386;2023-12-28T02:30:54;95555.44;;;10.54;37.28
79577;BME280;69045;48.136;11.386;2023-12-28T02:33:28;95558.88;;;10.55;37.69
79577;BME280;69045;48.136;11.386;2023-12-28T02:36:01;95552.78;;;10.61;38.12
79577;BME280;69045;48.136;11.386;2023-12-28T02:38:32;95561.19;;;10.70;38.48
79577;BME280;69045;48.136;11.386;2023-12-28T02:41:04;95557.38;;;10.72;38.17
79577;BME280;69045;48.136;11.386;2023-12-28T02:43:35;95549.50;;;10.72;37.87
79577;BME280;69045;48.136;11.386;2023-12-28T02:46:03;95549.50;;;10.72;37.58
79577;BME280;69045;48.136;11.386;2023-12-28T02:48:31;95553.16;;;10.71;37.12
79577;BME280;69045;48.136;11.386;2023-12-28T02:50:59;95555.38;;;10.68;37.08
79577;BME280;69045;48.136;11.386;2023-12-28T02:53:27;95553.75;;;10.66;38.02
79577;BME280;69045;48.136;11.386;2023-12-28T02:55:55;95550.97;;;10.61;38.24
79577;BME280;69045;48.136;11.386;2023-12-28T02:58:23;95555.63;;;10.59;38.12
79577;BME280;69045;48.136;11.386;2023-12-28T03:00:52;95550.78;;;10.56;38.02
79577;BME280;69045;48.136;11.386;2023-12-28T03:03:22;95552.59;;;10.56;38.46
79577;BME280;69045;48.136;11.386;2023-12-28T03:05:50;95553.41;;;10.56;38.22
79577;BME280;69045;48.136;11.386;2023-12-28T03:08:18;95554.25;;;10.57;37.68
79577;BME280;69045;48.136;11.386;2023-12-28T03:10:46;95547.19;;;10.57;37.81
79577;BME280;69045;48.136;11.386;2023-12-28T03:13:14;95542.53;;;10.59;38.08
79577;BME280;69045;48.136;11.386;2023-12-28T03:15:42;95541.50;;;10.60;37.93
79577;BME280;69045;48.136;11.386;2023-12-28T03:18:12;95538.09;;;10.60;37.51
79577;BME280;69045;48.136;11.386;2023-12-28T03:20:40;95541.50;;;10.60;37.85
79577;BME280;69045;48.136;11.386;2023-12-28T03:23:08;95545.94;;;10.60;37.54
79577;BME280;69045;48.136;11.386;2023-12-28T03:25:38;95545.72;;;10.61;37.46
79577;BME280;69045;48.136;11.386;2023-12-28T03:28:07;95542.28;;;10.68;37.15
79577;BME280;69045;48.136;11.386;2023-12-28T03:30:35;95544.66;;;10.69;37.27
79577;BME280;69045;48.136;11.386;2023-12-28T03:33:03;95550.53;;;10.71;36.57
79577;BME280;69045;48.136;11.386;2023-12-28T03:35:33;95540.03;;;10.71;36.65
79577;BME280;69045;48.136;11.386;2023-12-28T03:38:01;95547.69;;;10.73;37.08
79577;BME280;69045;48.136;11.386;2023-12-28T03:40:28;95544.44;;;10.77;36.37
79577;BME280;69045;48.136;11.386;2023-12-28T03:42:57;95546.41;;;10.82;35.81
79577;BME280;69045;48.136;11.386;2023-12-28T03:45:25;95548.63;;;10.85;35.86
79577;BME280;69045;48.136;11.386;2023-12-28T03:47:53;95549.41;;;10.85;35.79
79577;BME280;69045;48.136;11.386;2023-12-28T03:50:21;95539.53;;;10.87;35.95
79577;BME280;69045;48.136;11.386;2023-12-28T03:52:50;95540.91;;;10.90;35.66
79577;BME280;69045;48.136;11.386;2023-12-28T03:55:18;95554.97;;;10.96;35.47
79577;BME280;69045;48.136;11.386;2023-12-28T03:57:46;95553.78;;;10.98;34.92
79577;BME280;69045;48.136;11.386;2023-12-28T04:00:15;95558.78;;;11.00;35.47
79577;BME280;69045;48.136;11.386;2023-12-28T04:02:43;95572.69;;;11.00;35.85
79577;BME280;69045;48.136;11.386;2023-12-28T04:05:11;95560.97;;;11.03;35.37
79577;BME280;69045;48.136;11.386;2023-12-28T04:07:39;95558.34;;;11.03;34.84
79577;BME280;69045;48.136;11.386;2023-12-28T04:10:09;95564.63;;;11.02;34.41
79577;BME280;69045;48.136;11.386;2023-12-28T04:12:37;95565.63;;;11.01;35.47
79577;BME280;69045;48.136;11.386;2023-12-28T04:15:06;95570.72;;;10.96;36.10
79577;BME280;69045;48.136;11.386;2023-12-28T04:17:35;95566.47;;;10.94;35.40
79577;BME280;69045;48.136;11.386;2023-12-28T04:20:06;95567.28;;;10.95;34.82
79577;BME280;69045;48.136;11.386;2023-12-28T04:22:34;95572.53;;;10.95;34.52
79577;BME280;69045;48.136;11.386;2023-12-28T04:25:03;95569.91;;;10.95;35.36
79577;BME280;69045;48.136;11.386;2023-12-28T04:27:32;95574.78;;;10.91;35.76
79577;BME280;69045;48.136;11.386;2023-12-28T04:30:00;95568.34;;;10.87;35.84
79577;BME280;69045;48.136;11.386;2023-12-28T04:32:29;95571.41;;;10.84;35.39
79577;BME280;69045;48.136;11.386;2023-12-28T04:34:57;95568.97;;;10.83;35.68
79577;BME280;69045;48.136;11.386;2023-12-28T04:37:25;95566.56;;;10.81;34.99
79577;BME280;69045;48.136;11.386;2023-12-28T04:39:53;95565.19;;;10.79;35.92
79577;BME280;69045;48.136;11.386;2023-12-28T04:42:21;95571.84;;;10.75;35.51
79577;BME280;69045;48.136;11.386;2023-12-28T04:44:50;95570.06;;;10.69;36.12
79577;BME280;69045;48.136;11.386;2023-12-28T04:47:18;95573.94;;;10.66;36.35
79577;BME280;69045;48.136;11.386;2023-12-28T04:49:46;95568.50;;;10.61;35.89
79577;BME280;69045;48.136;11.386;2023-12-28T04:52:15;95568.94;;;10.58;35.64
79577;BME280;69045;48.136;11.386;2023-12-28T04:54:43;95570.94;;;10.56;35.91
79577;BME280;69045;48.136;11.386;2023-12-28T04:57:11;95565.13;;;10.54;36.45
79577;BME280;69045;48.136;11.386;2023-12-28T04:59:39;95562.72;;;10.52;36.37
79577;BME280;69045;48.136;11.386;2023-12-28T05:02:08;95559.09;;;10.53;36.57
79577;BME280;69045;48.136;11.386;2023-12-28T05:04:37;95565.72;;;10.56;36.78
79577;BME280;69045;48.136;11.386;2023-12-28T05:07:05;95557.84;;;10.56;35.43
79577;BME280;69045;48.136;11.386;2023-12-28T05:09:34;95558.25;;;10.59;35.43
79577;BME280;69045;48.136;11.386;2023-12-28T05:12:02;95563.84;;;10.63;36.32
79577;BME280;69045;48.136;11.386;2023-12-28T05:14:30;95576.91;;;10.70;36.37
79577;BME280;69045;48.136;11.386;2023-12-28T05:16:58;95574.25;;;10.76;36.12
79577;BME280;69045;48.136;11.386;2023-12-28T05:19:27;95581.28;;;10.82;35.21
79577;BME280;69045;48.136;11.386;2023-12-28T05:21:56;95583.50;;;10.85;35.42
79577;BME280;69045;48.136;11.386;2023-12-28T05:24:24;95584.88;;;10.88;35.62
79577;BME280;69045;48.136;11.386;2023-12-28T05:26:52;95589.91;;;10.89;34.77
79577;BME280;69045;48.136;11.386;2023-12-28T05:29:19;95589.31;;;10.87;34.75
79577;BME280;69045;48.136;11.386;2023-12-28T05:31:47;95593.97;;;10.85;35.64
79577;BME280;69045;48.136;11.386;2023-12-28T05:34:16;95594.19;;;10.84;35.23
79577;BME280;69045;48.136;11.386;2023-12-28T05:36:45;95594.19;;;10.84;35.36
79577;BME280;69045;48.136;11.386;2023-12-28T05:39:13;95591.97;;;10.81;35.48
79577;BME280;69045;48.136;11.386;2023-12-28T05:41:41;95591.38;;;10.79;35.30
79577;BME280;69045;48.136;11.386;2023-12-28T05:44:09;95597.44;;;10.79;35.59
79577;BME280;69045;48.136;11.386;2023-12-28T05:46:37;95594.00;;;10.79;35.91
79577;BME280;69045;48.136;11.386;2023-12-28T05:49:05;95591.38;;;10.79;35.39
79577;BME280;69045;48.136;11.386;2023-12-28T05:51:37;95590.38;;;10.80;35.37
79577;BME280;69045;48.136;11.386;2023-12-28T05:54:08;95589.34;;;10.81;35.60
79577;BME280;69045;48.136;11.386;2023-12-28T05:56:36;95594.38;;;10.82;36.03
79577;BME280;69045;48.136;11.386;2023-12-28T05:59:04;95586.50;;;10.82;34.93
79577;BME280;69045;48.136;11.386;2023-12-28T06:01:41;95593.56;;;10.82;35.84
79577;BME280;69045;48.136;11.386;2023-12-28T06:04:09;95589.78;;;10.78;35.32
79577;BME280;69045;48.136;11.386;2023-12-28T06:06:38;95581.53;;;10.74;35.80
79577;BME280;69045;48.136;11.386;2023-12-28T06:09:07;95578.72;;;10.69;35.25
79577;BME280;69045;48.136;11.386;2023-12-28T06:11:35;95590.47;;;10.60;35.39
79577;BME280;69045;48.136;11.386;2023-12-28T06:14:03;95585.69;;;10.50;36.90
79577;BME280;69045;48.136;11.386;2023-12-28T06:16:31;95593.19;;;10.40;36.85
79577;BME280;69045;48.136;11.386;2023-12-28T06:19:00;95599.03;;;10.35;36.13
79577;BME280;69045;48.136;11.386;2023-12-28T06:21:28;95605.47;;;10.39;35.65
79577;BME280;69045;48.136;11.386;2023-12-28T06:23:58;95602.84;;;10.39;36.42
79577;BME280;69045;48.136;11.386;2023-12-28T06:26:27;95603.28;;;10.36;36.74
79577;BME280;69045;48.136;11.386;2023-12-28T06:28:55;95592.22;;;10.21;37.52
79577;BME280;69045;48.136;11.386;2023-12-28T06:31:23;95594.53;;;9.91;38.60
79577;BME280;69045;48.136;11.386;2023-12-28T06:33:52;95598.00;;;9.58;38.99
79577;BME280;69045;48.136;11.386;2023-12-28T06:36:20;95598.03;;;9.25;40.23
79577;BME280;69045;48.136;11.386;2023-12-28T06:38:48;95596.59;;;8.90;40.97
79577;BME280;69045;48.136;11.386;2023-12-28T06:41:16;95603.81;;;8.74;41.26
79577;BME280;69045;48.136;11.386;2023-12-28T06:43:45;95600.53;;;8.59;42.16
79577;BME280;69045;48.136;11.386;2023-12-28T06:46:13;95593.66;;;8.45;42.14
79577;BME280;69045;48.136;11.386;2023-12-28T06:48:41;95596.25;;;8.38;42.33
79577;BME280;69045;48.136;11.386;2023-12-28T06:51:16;95603.00;;;8.26;42.58
79577;BME280;69045;48.136;11.386;2023-12-28T06:53:45;95606.53;;;8.12;42.73
79577;BME280;69045;48.136;11.386;2023-12-28T06:56:13;95608.16;;;7.78;43.78
79577;BME280;69045;48.136;11.386;2023-12-28T06:58:41;95605.81;;;7.83;43.64
79577;BME280;69045;48.136;11.386;2023-12-28T07:01:11;95604.63;;;7.58;43.99
79577;BME280;69045;48.136;11.386;2023-12-28T07:03:40;95608.53;;;7.69;44.00
79577;BME280;69045;48.136;11.386;2023-12-28T07:06:08;95611.31;;;7.67;44.27
79577;BME280;69045;48.136;11.386;2023-12-28T07:08:36;95608.22;;;7.85;45.59
79577;BME280;69045;48.136;11.386;2023-12-28T07:11:04;95603.25;;;7.97;44.39
79577;BME280;69045;48.136;11.386;2023-12-28T07:13:32;95597.28;;;8.03;44.31
79577;BME280;69045;48.136;11.386;2023-12-28T07:16:00;95599.13;;;8.09;43.83
79577;BME280;69045;48.136;11.386;2023-12-28T07:18:30;95595.91;;;8.07;43.83
79577;BME280;69045;48.136;11.386;2023-12-28T07:20:58;95588.03;;;8.00;44.35
79577;BME280;69045;48.136;11.386;2023-12-28T07:23:27;95601.19;;;7.85;44.70
79577;BME280;69045;48.136;11.386;2023-12-28T07:25:54;95594.69;;;7.68;44.60
79577;BME280;69045;48.136;11.386;2023-12-28T07:28:22;95596.44;;;7.96;45.05
79577;BME280;69045;48.136;11.386;2023-12-28T07:30:50;95592.78;;;9.06;43.63
79577;BME280;69045;48.136;11.386;2023-12-28T07:33:18;95593.81;;;10.35;41.03
79577;BME280;69045;48.136;11.386;2023-12-28T07:35:48;95585.63;;;11.52;39.65
79577;BME280;69045;48.136;11.386;2023-12-28T07:38:16;95595.78;;;12.28;36.67
79577;BME280;69045;48.136;11.386;2023-12-28T07:40:44;95589.69;;;13.06;35.00
79577;BME280;69045;48.136;11.386;2023-12-28T07:43:12;95599.19;;;13.84;33.58
79577;BME280;69045;48.136;11.386;2023-12-28T07:45:40;95602.94;;;14.75;32.35
79577;BME280;69045;48.136;11.386;2023-12-28T07:48:08;95606.06;;;15.63;30.63
79577;BME280;69045;48.136;11.386;2023-12-28T07:50:37;95602.97;;;15.20;31.48
79577;BME280;69045;48.136;11.386;2023-12-28T07:53:06;95606.94;;;14.14;32.55
79577;BME280;69045;48.136;11.386;2023-12-28T07:55:34;95613.84;;;13.68;34.94
79577;BME280;69045;48.136;11.386;2023-12-28T07:58:02;95612.53;;;14.41;32.87
79577;BME280;69045;48.136;11.386;2023-12-28T08:00:30;95613.06;;;15.40;31.34
79577;BME280;69045;48.136;11.386;2023-12-28T08:02:58;95618.59;;;16.06;30.43
79577;BME280;69045;48.136;11.386;2023-12-28T08:05:26;95625.72;;;16.88;29.90
79577;BME280;69045;48.136;11.386;2023-12-28T08:07:54;95618.53;;;17.69;29.43
79577;BME280;69045;48.136;11.386;2023-12-28T08:10:24;95617.31;;;18.72;28.53
79577;BME280;69045;48.136;11.386;2023-12-28T08:12:52;95615.38;;;19.66;28.53
79577;BME280;69045;48.136;11.386;2023-12-28T08:15:20;95621.53;;;20.87;26.81
79577;BME280;69045;48.136;11.386;2023-12-28T08:17:48;95610.56;;;21.77;25.54
79577;BME280;69045;48.136;11.386;2023-12-28T08:20:16;95609.63;;;22.50;23.69
79577;BME280;69045;48.136;11.386;2023-12-28T08:22:44;95602.88;;;23.19;22.74
79577;BME280;69045;48.136;11.386;2023-12-28T08:25:16;95602.94;;;23.52;20.63
79577;BME280;69045;48.136;11.386;2023-12-28T08:27:46;95602.03;;;24.08;20.59
79577;BME280;69045;48.136;11.386;2023-12-28T08:30:14;95619.66;;;24.55;19.70
79577;BME280;69045;48.136;11.386;2023-12-28T08:32:43;95614.28;;;24.96;19.50
79577;BME280;69045;48.136;11.386;2023-12-28T08:35:11;95621.28;;;25.34;19.15
79577;BME280;69045;48.136;11.386;2023-12-28T08:37:39;95615.38;;;25.81;18.69
79577;BME280;69045;48.136;11.386;2023-12-28T08:40:10;95623.16;;;25.92;18.52
79577;BME280;69045;48.136;11.386;2023-12-28T08:42:38;95625.50;;;25.71;18.60
79577;BME280;69045;48.136;11.386;2023-12-28T08:45:08;95630.97;;;25.43;18.45
79577;BME280;69045;48.136;11.386;2023-12-28T08:47:36;95625.72;;;24.88;18.88
79577;BME280;69045;48.136;11.386;2023-12-28T08:50:05;95623.06;;;24.14;19.67
79577;BME280;69045;48.136;11.386;2023-12-28T08:52:33;95625.81;;;24.09;20.42
79577;BME280;69045;48.136;11.386;2023-12-28T08:55:01;95628.22;;;23.78;20.21
79577;BME280;69045;48.136;11.386;2023-12-28T08:57:30;95627.84;;;23.85;20.42
79577;BME280;69045;48.136;11.386;2023-12-28T09:00:13;95624.47;;;23.60;20.21
79577;BME280;69045;48.136;11.386;2023-12-28T09:02:43;95618.63;;;23.39;20.24
79577;BME280;69045;48.136;11.386;2023-12-28T09:05:11;95629.44;;;23.29;21.01
79577;BME280;69045;48.136;11.386;2023-12-28T09:07:39;95635.09;;;23.47;20.40
79577;BME280;69045;48.136;11.386;2023-12-28T09:10:10;95630.91;;;23.40;20.54
79577;BME280;69045;48.136;11.386;2023-12-28T09:12:40;95629.19;;;23.31;19.97
79577;BME280;69045;48.136;11.386;2023-12-28T09:15:10;95631.56;;;23.13;20.16
79577;BME280;69045;48.136;11.386;2023-12-28T09:17:38;95623.19;;;22.77;21.05
79577;BME280;69045;48.136;11.386;2023-12-28T09:20:07;95622.38;;;22.53;20.80
79577;BME280;69045;48.136;11.386;2023-12-28T09:22:35;95627.47;;;22.25;20.93
79577;BME280;69045;48.136;11.386;2023-12-28T09:25:04;95620.56;;;22.24;21.54
79577;BME280;69045;48.136;11.386;2023-12-28T09:27:32;95622.31;;;22.10;21.12
79577;BME280;69045;48.136;11.386;2023-12-28T09:30:00;95620.75;;;21.99;21.17
79577;BME280;69045;48.136;11.386;2023-12-28T09:32:29;95611.97;;;21.98;21.19
79577;BME280;69045;48.136;11.386;2023-12-28T09:34:57;95614.97;;;21.92;21.41
79577;BME280;69045;48.136;11.386;2023-12-28T09:37:25;95610.22;;;21.84;21.39
79577;BME280;69045;48.136;11.386;2023-12-28T09:39:53;95605.59;;;21.94;21.37
79577;BME280;69045;48.136;11.386;2023-12-28T09:42:25;95616.41;;;21.79;21.36
79577;BME280;69045;48.136;11.386;2023-12-28T09:44:56;95606.66;;;21.64;21.73
79577;BME280;69045;48.136;11.386;2023-12-28T09:47:24;95600.84;;;21.57;21.67
79577;BME280;69045;48.136;11.386;2023-12-28T09:49:53;95595.00;;;21.55;21.71
79577;BME280;69045;48.136;11.386;2023-12-28T09:52:22;95602.94;;;21.60;21.49
79577;BME280;69045;48.136;11.386;2023-12-28T09:54:50;95610.88;;;21.36;21.90
79577;BME280;69045;48.136;11.386;2023-12-28T09:57:19;95609.69;;;21.08;22.12
79577;BME280;69045;48.136;11.386;2023-12-28T09:59:47;95608.94;;;20.97;22.21
79577;BME280;69045;48.136;11.386;2023-12-28T10:02:16;95610.88;;;20.82;21.98
79577;BME280;69045;48.136;11.386;2023-12-28T10:04:44;95610.91;;;20.71;22.53
79577;BME280;69045;48.136;11.386;2023-12-28T10:07:14;95606.72;;;20.60;22.13
79577;BME280;69045;48.136;11.386;2023-12-28T10:09:42;95597.16;;;20.49;22.81
79577;BME280;69045;48.136;11.386;2023-12-28T10:12:10;95597.94;;;20.55;22.41
79577;BME280;69045;48.136;11.386;2023-12-28T10:14:38;95608.03;;;20.58;22.28
79577;BME280;69045;48.136;11.386;2023-12-28T10:17:06;95612.06;;;20.55;22.60
79577;BME280;69045;48.136;11.386;2023-12-28T10:19:33;95610.22;;;20.40;23.05
79577;BME280;69045;48.136;11.386;2023-12-28T10:22:02;95618.75;;;20.32;22.78
79577;BME280;69045;48.136;11.386;2023-12-28T10:24:31;95616.63;;;20.24;22.83
79577;BME280;69045;48.136;11.386;2023-12-28T10:26:59;95616.09;;;20.27;23.44
79577;BME280;69045;48.136;11.386;2023-12-28T10:29:28;95611.06;;;20.15;23.41
79577;BME280;69045;48.136;11.386;2023-12-28T10:31:56;95607.63;;;20.05;23.01
79577;BME280;69045;48.136;11.386;2023-12-28T10:34:24;95600.22;;;19.92;22.83
79577;BME280;69045;48.136;11.386;2023-12-28T10:36:53;95595.16;;;19.70;23.46
79577;BME280;69045;48.136;11.386;2023-12-28T10:39:24;95584.78;;;19.43;23.68
79577;BME280;69045;48.136;11.386;2023-12-28T10:41:57;95585.03;;;19.26;24.06
79577;BME280;69045;48.136;11.386;2023-12-28T10:44:31;95586.09;;;19.15;23.83
79577;BME280;69045;48.136;11.386;2023-12-28T10:47:03;95586.03;;;18.94;24.27
79577;BME280;69045;48.136;11.386;2023-12-28T10:49:37;95587.34;;;18.76;24.20
79577;BME280;69045;48.136;11.386;2023-12-28T10:52:09;95588.84;;;18.57;24.56
79577;BME280;69045;48.136;11.386;2023-12-28T10:54:47;95586.06;;;18.32;24.42
79577;BME280;69045;48.136;11.386;2023-12-28T10:57:23;95594.78;;;18.27;24.47
79577;BME280;69045;48.136;11.386;2023-12-28T11:00:09;95583.38;;;18.26;24.65
79577;BME280;69045;48.136;11.386;2023-12-28T11:02:41;95583.31;;;18.11;25.10
79577;BME280;69045;48.136;11.386;2023-12-28T11:05:12;95584.03;;;18.01;25.30
79577;BME280;69045;48.136;11.386;2023-12-28T11:07:41;95581.13;;;17.98;25.63
79577;BME280;69045;48.136;11.386;2023-12-28T11:10:09;95584.78;;;17.92;25.38
79577;BME280;69045;48.136;11.386;2023-12-28T11:12:39;95581.88;;;17.88;25.27
79577;BME280;69045;48.136;11.386;2023-12-28T11:15:09;95576.78;;;17.82;25.86
79577;BME280;69045;48.136;11.386;2023-12-28T11:17:40;95571.72;;;17.80;25.59
79577;BME280;69045;48.136;11.386;2023-12-28T11:20:11;95566.41;;;17.80;25.57
79577;BME280;69045;48.136;11.386;2023-12-28T11:22:40;95563.50;;;17.77;25.80
79577;BME280;69045;48.136;11.386;2023-12-28T11:25:17;95562.66;;;17.71;25.82
79577;BME280;69045;48.136;11.386;2023-12-28T11:27:47;95558.38;;;17.70;25.96
79577;BME280;69045;48.136;11.386;2023-12-28T11:30:16;95554.16;;;17.69;26.07
79577;BME280;69045;48.136;11.386;2023-12-28T11:32:44;95549.66;;;17.69;26.62
79577;BME280;69045;48.136;11.386;2023-12-28T11:35:13;95545.13;;;17.70;26.34
79577;BME280;69045;48.136;11.386;2023-12-28T11:37:46;95542.97;;;17.67;26.30
79577;BME280;69045;48.136;11.386;2023-12-28T11:40:19;95539.78;;;17.65;26.12
79577;BME280;69045;48.136;11.386;2023-12-28T11:42:52;95538.69;;;17.61;26.33
79577;BME280;69045;48.136;11.386;2023-12-28T11:45:22;95536.06;;;17.61;26.31
79577;BME280;69045;48.136;11.386;2023-12-28T11:48:01;95533.41;;;17.61;26.24
79577;BME280;69045;48.136;11.386;2023-12-28T11:50:31;95545.84;;;17.60;26.22
79577;BME280;69045;48.136;11.386;2023-12-28T11:52:59;95547.16;;;17.58;26.67
79577;BME280;69045;48.136;11.386;2023-12-28T11:55:28;95543.41;;;17.54;26.36
79577;BME280;69045;48.136;11.386;2023-12-28T11:57:57;95542.63;;;17.53;27.13
79577;BME280;69045;48.136;11.386;2023-12-28T12:00:25;95542.41;;;17.55;26.77
79577;BME280;69045;48.136;11.386;2023-12-28T12:02:53;95545.00;;;17.50;27.01
79577;BME280;69045;48.136;11.386;2023-12-28T12:05:22;95543.63;;;17.47;27.36
79577;BME280;69045;48.136;11.386;2023-12-28T12:07:51;95549.19;;;17.45;27.02
79577;BME280;69045;48.136;11.386;2023-12-28T12:10:19;95531.13;;;17.37;27.36
79577;BME280;69045;48.136;11.386;2023-12-28T12:12:51;95534.56;;;17.38;27.47
79577;BME280;69045;48.136;11.386;2023-12-28T12:15:21;95529.00;;;17.34;27.98
79577;BME280;69045;48.136;11.386;2023-12-28T12:17:50;95522.59;;;17.30;27.80
79577;BME280;69045;48.136;11.386;2023-12-28T12:20:18;95521.47;;;17.21;28.02
79577;BME280;69045;48.136;11.386;2023-12-28T12:22:47;95524.56;;;17.13;28.29
79577;BME280;69045;48.136;11.386;2023-12-28T12:25:16;95521.34;;;17.06;28.19
79577;BME280;69045;48.136;11.386;2023-12-28T12:27:46;95518.09;;;16.99;28.45
79577;BME280;69045;48.136;11.386;2023-12-28T12:30:14;95520.94;;;16.92;28.73
79577;BME280;69045;48.136;11.386;2023-12-28T12:32:44;95521.16;;;16.85;28.73
79577;BME280;69045;48.136;11.386;2023-12-28T12:35:13;95518.72;;;16.79;28.80
79577;BME280;69045;48.136;11.386;2023-12-28T12:37:42;95516.25;;;16.72;29.31
79577;BME280;69045;48.136;11.386;2023-12-28T12:40:11;95510.34;;;16.65;29.83
79577;BME280;69045;48.136;11.386;2023-12-28T12:42:43;95516.41;;;16.60;30.17
79577;BME280;69045;48.136;11.386;2023-12-28T12:45:19;95513.94;;;16.54;30.30
79577;BME280;69045;48.136;11.386;2023-12-28T12:47:51;95502.53;;;16.48;30.40
79577;BME280;69045;48.136;11.386;2023-12-28T12:50:19;95505.63;;;16.45;29.94
79577;BME280;69045;48.136;11.386;2023-12-28T12:52:48;95503.25;;;16.44;30.31
79577;BME280;69045;48.136;11.386;2023-12-28T12:55:16;95504.56;;;16.41;30.45
79577;BME280;69045;48.136;11.386;2023-12-28T12:57:44;95513.22;;;16.36;30.74
79577;BME280;69045;48.136;11.386;2023-12-28T13:00:13;95514.53;;;16.34;30.63
79577;BME280;69045;48.136;11.386;2023-12-28T13:02:41;95510.50;;;16.31;31.54
79577;BME280;69045;48.136;11.386;2023-12-28T13:05:11;95510.50;;;16.31;31.10